createdAt,value
2018-09-14T00:00:15.102Z,96.03
2018-09-14T00:01:15.292Z,94.98
2018-09-14T00:02:15.483Z,95.17
2018-09-14T00:03:15.678Z,95.46
2018-09-14T00:04:15.866Z,95.27
2018-09-14T00:05:16.056Z,95.07
2018-09-14T00:06:16.245Z,94.98
2018-09-14T00:07:16.435Z,95.46
2018-09-14T00:08:16.626Z,95.65
2018-09-14T00:09:16.817Z,95.56
2018-09-14T00:10:17.013Z,96.13
2018-09-14T00:11:17.202Z,96.51
2018-09-14T00:12:17.394Z,95.94
2018-09-14T00:13:17.588Z,96.22
2018-09-14T00:14:17.774Z,96.42
2018-09-14T00:15:17.967Z,97.09
2018-09-14T00:16:18.154Z,96.89
2018-09-14T00:17:18.350Z,97.18
2018-09-14T00:18:18.547Z,96.61
2018-09-14T00:19:18.730Z,98.14
2018-09-14T00:20:18.923Z,98.66
2018-09-14T00:21:19.113Z,98.38
2018-09-14T00:22:19.302Z,98.86
2018-09-14T00:23:19.494Z,98.81
2018-09-14T00:24:19.686Z,97.95
2018-09-14T00:25:19.877Z,97.75
2018-09-14T00:26:20.066Z,98.14
2018-09-14T00:27:20.260Z,97.18
2018-09-14T00:28:20.448Z,97.38
2018-09-14T00:29:20.639Z,97.09
2018-09-14T00:30:20.828Z,96.70
2018-09-14T00:31:21.025Z,96.32
2018-09-14T00:32:21.209Z,96.22
2018-09-14T00:33:21.403Z,96.22
2018-09-14T00:34:21.593Z,96.42
2018-09-14T00:35:21.782Z,96.42
2018-09-14T00:36:21.974Z,96.13
2018-09-14T00:37:22.165Z,96.32
2018-09-14T00:38:22.357Z,96.42
2018-09-14T00:39:22.545Z,96.03
2018-09-14T00:40:22.737Z,96.51
2018-09-14T00:41:22.931Z,96.32
2018-09-14T00:42:23.119Z,96.89
2018-09-14T00:43:23.308Z,97.28
2018-09-14T00:44:23.495Z,97.75
2018-09-14T00:45:23.685Z,97.61
2018-09-14T00:46:23.873Z,98.09
2018-09-14T00:47:24.060Z,98.57
2018-09-14T00:48:24.252Z,98.47
2018-09-14T00:49:24.444Z,98.33
2018-09-14T00:50:24.629Z,97.85
2018-09-14T00:51:24.822Z,98.33
2018-09-14T00:52:25.011Z,98.14
2018-09-14T00:53:25.206Z,98.14
2018-09-14T00:54:25.405Z,98.14
2018-09-14T00:55:25.586Z,98.14
2018-09-14T00:56:25.773Z,98.05
2018-09-14T00:57:25.962Z,98.14
2018-09-14T00:58:26.150Z,98.43
2018-09-14T00:59:26.334Z,97.95
2018-09-14T01:00:26.525Z,97.95
2018-09-14T01:01:26.718Z,98.24
2018-09-14T01:02:26.903Z,98.19
2018-09-14T01:03:27.099Z,98.76
2018-09-14T01:04:27.297Z,99.33
2018-09-14T01:05:27.483Z,99.99
2018-09-14T01:06:27.670Z,99.99
2018-09-14T01:07:27.865Z,99.99
2018-09-14T01:08:28.055Z,99.99
2018-09-14T01:09:28.247Z,99.99
2018-09-14T01:10:28.435Z,99.99
2018-09-14T01:11:28.627Z,99.99
2018-09-14T01:12:28.816Z,99.99
2018-09-14T01:13:29.005Z,99.99
2018-09-14T01:14:29.196Z,99.99
2018-09-14T01:15:29.380Z,99.99
2018-09-14T01:16:29.574Z,99.99
2018-09-14T01:17:29.764Z,99.99
2018-09-14T01:18:29.951Z,99.99
2018-09-14T01:19:30.143Z,99.99
2018-09-14T01:20:30.333Z,99.99
2018-09-14T01:21:30.524Z,99.99
2018-09-14T01:22:30.712Z,99.99
2018-09-14T01:23:30.907Z,99.99
2018-09-14T01:24:31.111Z,99.99
2018-09-14T01:25:31.296Z,99.99
2018-09-14T01:26:31.491Z,99.99
2018-09-14T01:27:31.721Z,99.99
2018-09-14T01:28:31.866Z,99.99
2018-09-14T01:29:32.061Z,99.99
2018-09-14T01:30:32.246Z,99.99
2018-09-14T01:31:32.445Z,99.99
2018-09-14T01:32:32.633Z,99.99
2018-09-14T01:33:32.835Z,99.99
2018-09-14T01:34:33.015Z,99.99
2018-09-14T01:35:33.205Z,99.99
2018-09-14T01:36:33.395Z,99.99
2018-09-14T01:37:33.587Z,99.99
2018-09-14T01:38:33.769Z,99.99
2018-09-14T01:39:33.963Z,99.99
2018-09-14T01:40:34.152Z,99.99
2018-09-14T01:41:34.343Z,99.99
2018-09-14T01:42:34.531Z,99.99
2018-09-14T01:43:34.719Z,99.99
2018-09-14T01:44:34.911Z,99.99
2018-09-14T01:45:35.105Z,99.99
2018-09-14T01:46:35.294Z,99.99
2018-09-14T01:47:35.481Z,99.99
2018-09-14T01:48:35.680Z,99.99
2018-09-14T01:49:35.862Z,99.99
2018-09-14T01:50:36.054Z,99.99
2018-09-14T01:51:36.244Z,99.99
2018-09-14T01:52:36.433Z,99.99
2018-09-14T01:53:36.622Z,99.99
2018-09-14T01:54:36.823Z,99.99
2018-09-14T01:55:37.002Z,99.99
2018-09-14T01:56:37.193Z,99.99
2018-09-14T01:57:37.382Z,99.99
2018-09-14T01:58:37.574Z,99.99
2018-09-14T01:59:37.757Z,99.99
2018-09-14T02:00:37.957Z,99.99
2018-09-14T02:01:38.139Z,99.99
2018-09-14T02:02:38.328Z,99.99
2018-09-14T02:03:38.518Z,99.99
2018-09-14T02:04:38.711Z,99.99
2018-09-14T02:05:38.896Z,99.99
2018-09-14T02:06:39.093Z,99.99
2018-09-14T02:07:39.287Z,99.99
2018-09-14T02:08:39.472Z,99.99
2018-09-14T02:09:39.661Z,99.99
2018-09-14T02:10:39.847Z,99.99
2018-09-14T02:11:40.037Z,99.99
2018-09-14T02:12:40.228Z,99.99
2018-09-14T02:13:40.416Z,99.99
2018-09-14T02:14:40.612Z,99.99
2018-09-14T02:15:40.795Z,99.99
2018-09-14T02:16:40.992Z,99.99
2018-09-14T02:17:41.176Z,99.99
2018-09-14T02:18:41.364Z,99.99
2018-09-14T02:19:41.548Z,99.99
2018-09-14T02:20:41.737Z,99.99
2018-09-14T02:21:41.927Z,99.99
2018-09-14T02:22:42.122Z,99.99
2018-09-14T02:23:42.314Z,99.99
2018-09-14T02:24:42.507Z,99.99
2018-09-14T02:25:42.714Z,99.99
2018-09-14T02:26:42.897Z,99.99
2018-09-14T02:27:43.081Z,99.99
2018-09-14T02:28:43.274Z,99.99
2018-09-14T02:29:43.465Z,99.99
2018-09-14T02:30:43.651Z,99.99
2018-09-14T02:31:43.838Z,99.99
2018-09-14T02:32:44.032Z,99.99
2018-09-14T02:33:44.219Z,99.99
2018-09-14T02:34:44.413Z,99.99
2018-09-14T02:35:44.602Z,99.99
2018-09-14T02:36:44.798Z,99.99
2018-09-14T02:37:44.995Z,99.99
2018-09-14T02:38:45.186Z,99.99
2018-09-14T02:39:45.370Z,99.99
2018-09-14T02:40:45.561Z,99.99
2018-09-14T02:41:45.755Z,99.99
2018-09-14T02:42:45.957Z,99.99
2018-09-14T02:43:46.140Z,99.99
2018-09-14T02:44:46.333Z,99.99
2018-09-14T02:45:46.518Z,99.99
2018-09-14T02:46:46.714Z,99.99
2018-09-14T02:47:46.902Z,99.99
2018-09-14T02:48:47.097Z,99.99
2018-09-14T02:49:47.281Z,99.99
2018-09-14T02:50:47.474Z,99.99
2018-09-14T02:51:47.660Z,99.99
2018-09-14T02:52:47.850Z,99.99
2018-09-14T02:53:48.041Z,99.99
2018-09-14T02:54:48.227Z,99.99
2018-09-14T02:55:48.418Z,99.99
2018-09-14T02:56:48.611Z,99.99
2018-09-14T02:57:48.804Z,99.99
2018-09-14T02:58:49.000Z,99.99
2018-09-14T02:59:49.188Z,99.99
2018-09-14T03:00:49.376Z,99.99
2018-09-14T03:01:49.572Z,99.99
2018-09-14T03:02:49.762Z,99.99
2018-09-14T03:03:49.950Z,99.99
2018-09-14T03:04:50.145Z,99.99
2018-09-14T03:05:50.340Z,99.99
2018-09-14T03:06:50.524Z,99.99
2018-09-14T03:07:50.719Z,99.99
2018-09-14T03:08:50.904Z,99.99
2018-09-14T03:09:51.093Z,99.99
2018-09-14T03:10:51.281Z,99.99
2018-09-14T03:11:51.479Z,99.99
2018-09-14T03:12:51.671Z,99.99
2018-09-14T03:13:51.860Z,99.99
2018-09-14T03:14:52.053Z,99.99
2018-09-14T03:15:52.242Z,99.99
2018-09-14T03:16:52.435Z,99.99
2018-09-14T03:17:52.623Z,99.99
2018-09-14T03:18:52.812Z,99.99
2018-09-14T03:19:53.002Z,99.99
2018-09-14T03:20:53.189Z,99.99
2018-09-14T03:21:53.382Z,99.99
2018-09-14T03:22:53.573Z,99.99
2018-09-14T03:23:53.759Z,99.99
2018-09-14T03:24:53.949Z,99.99
2018-09-14T03:25:54.150Z,99.99
2018-09-14T03:26:54.347Z,99.99
2018-09-14T03:27:54.537Z,99.99
2018-09-14T03:28:54.724Z,99.99
2018-09-14T03:29:54.911Z,99.99
2018-09-14T03:30:55.103Z,99.99
2018-09-14T03:31:55.290Z,99.99
2018-09-14T03:32:55.488Z,99.99
2018-09-14T03:33:55.681Z,99.99
2018-09-14T03:34:55.869Z,99.99
2018-09-14T03:35:56.061Z,99.99
2018-09-14T03:36:56.253Z,99.99
2018-09-14T03:37:56.444Z,99.99
2018-09-14T03:38:56.644Z,99.99
2018-09-14T03:39:56.823Z,99.99
2018-09-14T03:40:57.012Z,99.99
2018-09-14T03:41:57.218Z,99.99
2018-09-14T03:42:57.402Z,99.99
2018-09-14T03:43:57.594Z,99.99
2018-09-14T03:44:57.787Z,99.99
2018-09-14T03:45:57.975Z,99.99
2018-09-14T03:46:58.164Z,99.99
2018-09-14T03:47:58.352Z,99.99
2018-09-14T03:48:58.538Z,99.99
2018-09-14T03:49:58.731Z,99.99
2018-09-14T03:50:58.917Z,99.99
2018-09-14T03:51:59.104Z,99.99
2018-09-14T03:52:59.297Z,99.99
2018-09-14T03:53:59.488Z,99.99
2018-09-14T03:54:59.680Z,99.99
2018-09-14T03:55:59.872Z,99.99
2018-09-14T03:57:00.065Z,99.99
2018-09-14T03:58:00.253Z,99.99
2018-09-14T03:59:00.440Z,99.99
2018-09-14T04:00:00.633Z,99.99
2018-09-14T04:01:00.820Z,99.99
2018-09-14T04:02:01.009Z,99.43
2018-09-14T04:03:01.198Z,99.62
2018-09-14T04:04:01.386Z,98.76
2018-09-14T04:05:01.576Z,98.81
2018-09-14T04:06:01.768Z,98.66
2018-09-14T04:07:01.953Z,99.57
2018-09-14T04:08:02.147Z,99.99
2018-09-14T04:09:02.341Z,99.48
2018-09-14T04:10:02.529Z,99.99
2018-09-14T04:11:02.724Z,99.99
2018-09-14T04:12:02.910Z,99.99
2018-09-14T04:13:03.104Z,99.43
2018-09-14T04:14:03.297Z,98.95
2018-09-14T04:15:03.486Z,99.57
2018-09-14T04:16:03.675Z,98.71
2018-09-14T04:17:03.869Z,98.66
2018-09-14T04:18:04.061Z,99.57
2018-09-14T04:19:04.254Z,99.99
2018-09-14T04:20:04.445Z,99.19
2018-09-14T04:21:04.631Z,99.99
2018-09-14T04:22:04.820Z,99.99
2018-09-14T04:23:05.008Z,99.99
2018-09-14T04:24:05.202Z,99.99
2018-09-14T04:25:05.393Z,99.99
2018-09-14T04:26:05.583Z,99.99
2018-09-14T04:27:05.775Z,99.99
2018-09-14T04:28:05.962Z,99.99
2018-09-14T04:29:06.153Z,99.99
2018-09-14T04:30:06.343Z,99.99
2018-09-14T04:31:06.532Z,99.99
2018-09-14T04:32:06.725Z,99.99
2018-09-14T04:33:06.913Z,99.99
2018-09-14T04:34:07.100Z,99.99
2018-09-14T04:35:07.289Z,99.99
2018-09-14T04:36:07.481Z,99.99
2018-09-14T04:37:07.672Z,99.99
2018-09-14T04:38:07.926Z,99.99
2018-09-14T04:39:08.056Z,99.99
2018-09-14T04:40:08.245Z,99.99
2018-09-14T04:41:08.434Z,99.99
2018-09-14T04:42:08.622Z,99.29
2018-09-14T04:43:08.814Z,99.29
2018-09-14T04:44:09.001Z,98.52
2018-09-14T04:45:09.187Z,98.04
2018-09-14T04:46:09.377Z,97.80
2018-09-14T04:47:09.571Z,98.66
2018-09-14T04:48:10.684Z,98.47
2018-09-14T04:49:10.759Z,98.38
2018-09-14T04:50:10.683Z,97.47
2018-09-14T04:51:10.252Z,97.47
2018-09-14T04:52:10.441Z,97.28
2018-09-14T04:53:10.689Z,96.32
2018-09-14T04:54:10.841Z,96.99
2018-09-14T04:55:11.016Z,96.13
2018-09-14T04:56:11.204Z,97.08
2018-09-14T04:57:11.446Z,95.94
2018-09-14T04:58:11.701Z,96.03
2018-09-14T04:59:11.730Z,95.32
2018-09-14T05:00:11.934Z,96.22
2018-09-14T05:01:12.119Z,95.84
2018-09-14T05:02:12.305Z,95.98
2018-09-14T05:03:12.507Z,95.46
2018-09-14T05:04:12.688Z,96.08
2018-09-14T05:05:12.881Z,95.94
2018-09-14T05:06:13.078Z,95.46
2018-09-14T05:07:13.275Z,94.79
2018-09-14T05:08:13.456Z,95.07
2018-09-14T05:09:13.648Z,94.02
2018-09-14T05:10:13.833Z,94.41
2018-09-14T05:11:14.024Z,94.12
2018-09-14T05:12:14.224Z,94.12
2018-09-14T05:13:14.414Z,95.12
2018-09-14T05:14:14.643Z,94.65
2018-09-14T05:15:14.801Z,94.93
2018-09-14T05:16:14.995Z,95.61
2018-09-14T05:17:15.178Z,96.18
2018-09-14T05:18:15.367Z,95.89
2018-09-14T05:19:15.560Z,95.98
2018-09-14T05:20:15.747Z,95.89
2018-09-14T05:21:15.932Z,95.98
2018-09-14T05:22:16.132Z,95.32
2018-09-14T05:23:16.314Z,94.93
2018-09-14T05:24:16.531Z,94.93
2018-09-14T05:25:16.692Z,94.07
2018-09-14T05:26:16.884Z,93.69
2018-09-14T05:27:17.074Z,94.07
2018-09-14T05:28:17.263Z,93.64
2018-09-14T05:29:17.450Z,94.02
2018-09-14T05:30:17.643Z,93.21
2018-09-14T05:31:17.822Z,93.74
2018-09-14T05:32:18.014Z,93.02
2018-09-14T05:33:18.204Z,93.60
2018-09-14T05:34:18.396Z,93.64
2018-09-14T05:35:18.581Z,93.93
2018-09-14T05:36:18.770Z,93.26
2018-09-14T05:37:18.962Z,92.78
2018-09-14T05:38:19.161Z,93.07
2018-09-14T05:39:19.347Z,93.16
2018-09-14T05:40:19.533Z,92.88
2018-09-14T05:41:19.719Z,92.49
2018-09-14T05:42:19.907Z,92.30
2018-09-14T05:43:20.106Z,92.02
2018-09-14T05:44:20.304Z,92.45
2018-09-14T05:45:20.489Z,92.78
2018-09-14T05:46:20.676Z,91.92
2018-09-14T05:47:20.867Z,91.63
2018-09-14T05:48:21.051Z,91.53
2018-09-14T05:49:21.244Z,91.44
2018-09-14T05:50:21.436Z,91.44
2018-09-14T05:51:21.627Z,91.49
2018-09-14T05:52:21.819Z,92.54
2018-09-14T05:53:22.003Z,92.16
2018-09-14T05:54:22.243Z,92.35
2018-09-14T05:55:22.387Z,91.35
2018-09-14T05:56:22.575Z,91.83
2018-09-14T05:57:22.765Z,91.78
2018-09-14T05:58:22.956Z,91.68
2018-09-14T05:59:23.154Z,92.02
2018-09-14T06:00:23.346Z,91.53
2018-09-14T06:01:23.541Z,91.30
2018-09-14T06:02:23.729Z,91.68
2018-09-14T06:03:23.916Z,91.68
2018-09-14T06:04:24.117Z,91.49
2018-09-14T06:05:24.312Z,92.02
2018-09-14T06:06:24.575Z,90.96
2018-09-14T06:07:24.680Z,91.25
2018-09-14T06:08:24.864Z,90.67
2018-09-14T06:09:25.056Z,90.67
2018-09-14T06:10:25.246Z,91.35
2018-09-14T06:11:25.431Z,90.67
2018-09-14T06:12:25.627Z,90.58
2018-09-14T06:13:25.810Z,90.96
2018-09-14T06:14:26.003Z,90.87
2018-09-14T06:15:26.209Z,90.20
2018-09-14T06:16:26.389Z,90.20
2018-09-14T06:17:26.578Z,90.58
2018-09-14T06:18:26.766Z,90.20
2018-09-14T06:19:26.960Z,90.20
2018-09-14T06:20:27.152Z,89.34
2018-09-14T06:21:27.337Z,89.34
2018-09-14T06:22:27.540Z,90.01
2018-09-14T06:23:27.719Z,90.10
2018-09-14T06:24:27.909Z,90.20
2018-09-14T06:25:28.103Z,89.72
2018-09-14T06:26:28.285Z,89.53
2018-09-14T06:27:28.476Z,89.62
2018-09-14T06:28:28.674Z,90.20
2018-09-14T06:29:28.862Z,90.10
2018-09-14T06:30:29.103Z,89.91
2018-09-14T06:31:29.241Z,89.81
2018-09-14T06:32:29.435Z,90.10
2018-09-14T06:33:29.621Z,90.10
2018-09-14T06:34:29.811Z,89.34
2018-09-14T06:35:30.001Z,88.76
2018-09-14T06:36:30.196Z,88.48
2018-09-14T06:37:30.382Z,88.62
2018-09-14T06:38:30.570Z,87.95
2018-09-14T06:39:30.771Z,88.57
2018-09-14T06:40:30.960Z,88.86
2018-09-14T06:41:31.148Z,88.67
2018-09-14T06:42:31.339Z,88.86
2018-09-14T06:43:31.535Z,88.86
2018-09-14T06:44:31.722Z,88.86
2018-09-14T06:45:31.994Z,88.86
2018-09-14T06:46:32.106Z,88.86
2018-09-14T06:47:32.295Z,89.15
2018-09-14T06:48:32.486Z,88.57
2018-09-14T06:49:32.677Z,88.48
2018-09-14T06:50:32.867Z,87.90
2018-09-14T06:51:33.049Z,88.57
2018-09-14T06:52:33.241Z,89.34
2018-09-14T06:53:33.427Z,89.43
2018-09-14T06:54:33.618Z,89.67
2018-09-14T06:55:33.813Z,89.53
2018-09-14T06:56:34.000Z,89.53
2018-09-14T06:57:34.193Z,89.43
2018-09-14T06:58:34.379Z,89.53
2018-09-14T06:59:34.567Z,89.34
2018-09-14T07:00:34.779Z,89.34
2018-09-14T07:01:34.958Z,88.57
2018-09-14T07:02:35.143Z,88.57
2018-09-14T07:03:35.332Z,88.57
2018-09-14T07:04:35.521Z,88.48
2018-09-14T07:05:35.709Z,88.09
2018-09-14T07:06:35.924Z,88.19
2018-09-14T07:07:36.089Z,88.76
2018-09-14T07:08:36.277Z,88.38
2018-09-14T07:09:36.469Z,88.09
2018-09-14T07:10:36.657Z,87.76
2018-09-14T07:11:36.875Z,88.19
2018-09-14T07:12:37.037Z,88.23
2018-09-14T07:13:37.224Z,87.95
2018-09-14T07:14:37.414Z,87.66
2018-09-14T07:15:37.606Z,87.66
2018-09-14T07:16:37.797Z,87.37
2018-09-14T07:17:37.988Z,87.56
2018-09-14T07:18:38.184Z,87.27
2018-09-14T07:19:38.369Z,86.70
2018-09-14T07:20:38.553Z,86.61
2018-09-14T07:21:38.804Z,86.80
2018-09-14T07:22:38.936Z,86.51
2018-09-14T07:23:39.122Z,86.46
2018-09-14T07:24:39.379Z,86.74
2018-09-14T07:25:39.506Z,86.46
2018-09-14T07:26:39.696Z,85.98
2018-09-14T07:27:39.892Z,85.41
2018-09-14T07:28:40.103Z,85.02
2018-09-14T07:29:40.269Z,84.92
2018-09-14T07:30:40.470Z,84.68
2018-09-14T07:31:40.761Z,84.78
2018-09-14T07:32:40.854Z,83.53
2018-09-14T07:33:41.048Z,83.97
2018-09-14T07:34:41.233Z,84.88
2018-09-14T07:35:41.424Z,84.30
2018-09-14T07:36:41.612Z,84.64
2018-09-14T07:37:41.811Z,85.69
2018-09-14T07:38:42.001Z,85.79
2018-09-14T07:39:42.199Z,85.54
2018-09-14T07:40:42.404Z,84.39
2018-09-14T07:41:42.592Z,83.67
2018-09-14T07:42:42.784Z,83.00
2018-09-14T07:43:42.973Z,82.90
2018-09-14T07:44:43.164Z,82.75
2018-09-14T07:45:43.365Z,81.60
2018-09-14T07:46:43.561Z,81.51
2018-09-14T07:47:43.753Z,81.98
2018-09-14T07:48:43.946Z,81.12
2018-09-14T07:49:44.134Z,81.22
2018-09-14T07:50:44.327Z,81.46
2018-09-14T07:51:44.515Z,82.42
2018-09-14T07:52:44.710Z,82.81
2018-09-14T07:53:44.901Z,82.08
2018-09-14T07:54:45.089Z,81.45
2018-09-14T07:55:45.286Z,80.53
2018-09-14T07:56:45.494Z,80.24
2018-09-14T07:57:45.667Z,79.24
2018-09-14T07:58:45.857Z,79.68
2018-09-14T07:59:46.049Z,81.22
2018-09-14T08:00:46.247Z,81.35
2018-09-14T08:01:46.432Z,80.24
2018-09-14T08:02:46.628Z,79.13
2018-09-14T08:03:46.818Z,78.75
2018-09-14T08:04:47.005Z,78.21
2018-09-14T08:05:47.200Z,77.34
2018-09-14T08:06:47.393Z,77.29
2018-09-14T08:07:47.584Z,76.84
2018-09-14T08:08:47.780Z,75.59
2018-09-14T08:09:47.971Z,75.84
2018-09-14T08:10:48.165Z,76.71
2018-09-14T08:11:48.390Z,76.90
2018-09-14T08:12:48.548Z,76.32
2018-09-14T08:13:48.740Z,76.42
2018-09-14T08:14:48.944Z,76.67
2018-09-14T08:15:49.129Z,77.69
2018-09-14T08:16:49.325Z,77.44
2018-09-14T08:17:49.517Z,77.98
2018-09-14T08:18:49.707Z,78.45
2018-09-14T08:19:49.911Z,77.44
2018-09-14T08:20:50.129Z,77.53
2018-09-14T08:21:50.429Z,77.73
2018-09-14T08:22:50.512Z,77.50
2018-09-14T08:23:50.714Z,77.44
2018-09-14T08:24:50.907Z,77.73
2018-09-14T08:25:51.113Z,77.31
2018-09-14T08:26:51.391Z,77.78
2018-09-14T08:27:51.494Z,77.53
2018-09-14T08:28:51.695Z,76.96
2018-09-14T08:29:51.885Z,77.00
2018-09-14T08:30:52.086Z,76.46
2018-09-14T08:31:52.279Z,75.88
2018-09-14T08:32:52.475Z,76.46
2018-09-14T08:33:52.683Z,74.65
2018-09-14T08:34:52.877Z,73.24
2018-09-14T08:35:53.077Z,71.15
2018-09-14T08:36:53.272Z,71.54
2018-09-14T08:37:53.465Z,70.38
2018-09-14T08:38:53.663Z,71.34
2018-09-14T08:39:53.857Z,70.42
2018-09-14T08:40:54.054Z,70.22
2018-09-14T08:41:54.247Z,70.76
2018-09-14T08:42:54.444Z,71.44
2018-09-14T08:43:54.638Z,71.37
2018-09-14T08:44:54.834Z,72.07
2018-09-14T08:45:55.033Z,72.97
2018-09-14T08:46:55.229Z,72.53
2018-09-14T08:47:55.456Z,72.18
2018-09-14T08:48:55.628Z,72.27
2018-09-14T08:49:55.825Z,72.47
2018-09-14T08:50:56.019Z,73.01
2018-09-14T08:51:56.217Z,72.49
2018-09-14T08:52:56.413Z,72.14
2018-09-14T08:53:56.606Z,71.54
2018-09-14T08:54:56.805Z,69.52
2018-09-14T08:55:57.002Z,67.11
2018-09-14T08:56:57.200Z,65.40
2018-09-14T08:57:57.408Z,63.11
2018-09-14T08:58:57.599Z,62.92
2018-09-14T08:59:57.800Z,60.78
2018-09-14T09:00:58.056Z,64.14
2018-09-14T09:01:58.198Z,65.95
2018-09-14T09:02:58.403Z,65.56
2018-09-14T09:03:58.657Z,63.04
2018-09-14T09:04:58.804Z,62.47
2018-09-14T09:05:59.014Z,65.56
2018-09-14T09:06:59.204Z,66.30
2018-09-14T09:07:59.410Z,64.92
2018-09-14T09:08:59.625Z,63.21
2018-09-14T09:09:59.807Z,62.07
2018-09-14T09:11:00.009Z,62.27
2018-09-14T09:12:00.215Z,60.78
2018-09-14T09:13:00.414Z,60.10
2018-09-14T09:14:00.616Z,60.82
2018-09-14T09:15:00.818Z,60.91
2018-09-14T09:16:01.017Z,61.24
2018-09-14T09:17:01.217Z,60.00
2018-09-14T09:18:01.417Z,58.31
2018-09-14T09:19:01.620Z,57.44
2018-09-14T09:20:01.831Z,57.68
2018-09-14T09:21:02.040Z,59.00
2018-09-14T09:22:02.244Z,59.33
2018-09-14T09:23:02.448Z,59.03
2018-09-14T09:24:02.648Z,59.38
2018-09-14T09:25:02.849Z,58.39
2018-09-14T09:26:03.051Z,59.06
2018-09-14T09:27:03.263Z,57.08
2018-09-14T09:28:03.465Z,57.28
2018-09-14T09:29:03.663Z,58.16
2018-09-14T09:30:03.868Z,59.39
2018-09-14T09:31:04.076Z,59.06
2018-09-14T09:32:04.277Z,56.34
2018-09-14T09:33:04.477Z,54.80
2018-09-14T09:34:04.680Z,55.53
2018-09-14T09:35:04.878Z,55.89
2018-09-14T09:36:05.090Z,55.60
2018-09-14T09:37:05.289Z,57.48
2018-09-14T09:38:05.494Z,58.00
2018-09-14T09:39:05.710Z,57.90
2018-09-14T09:40:05.919Z,56.96
2018-09-14T09:41:06.125Z,56.70
2018-09-14T09:42:06.328Z,56.25
2018-09-14T09:43:06.608Z,57.87
2018-09-14T09:44:06.747Z,58.98
2018-09-14T09:45:06.929Z,59.03
2018-09-14T09:46:07.132Z,57.25
2018-09-14T09:47:07.338Z,56.28
2018-09-14T09:48:07.545Z,56.30
2018-09-14T09:49:07.743Z,55.99
2018-09-14T09:50:07.944Z,56.51
2018-09-14T09:51:08.189Z,57.17
2018-09-14T09:52:08.352Z,59.89
2018-09-14T09:53:08.554Z,60.01
2018-09-14T09:54:08.760Z,59.17
2018-09-14T09:55:08.961Z,58.94
2018-09-14T09:56:09.167Z,57.80
2018-09-14T09:57:09.377Z,55.82
2018-09-14T09:58:09.571Z,55.27
2018-09-14T09:59:09.773Z,54.68
2018-09-14T10:00:09.978Z,53.28
2018-09-14T10:01:10.185Z,52.92
2018-09-14T10:02:10.385Z,52.04
2018-09-14T10:03:10.592Z,51.48
2018-09-14T10:04:10.872Z,50.21
2018-09-14T10:05:11.005Z,52.98
2018-09-14T10:06:11.208Z,52.96
2018-09-14T10:07:11.412Z,52.21
2018-09-14T10:08:11.619Z,51.82
2018-09-14T10:09:11.824Z,53.93
2018-09-14T10:10:12.035Z,54.00
2018-09-14T10:11:12.243Z,53.57
2018-09-14T10:12:12.444Z,52.11
2018-09-14T10:13:12.653Z,53.22
2018-09-14T10:14:12.918Z,55.14
2018-09-14T10:15:13.056Z,54.00
2018-09-14T10:16:13.259Z,53.83
2018-09-14T10:17:13.456Z,54.85
2018-09-14T10:18:13.652Z,55.43
2018-09-14T10:19:13.872Z,53.32
2018-09-14T10:20:14.068Z,55.47
2018-09-14T10:21:14.391Z,56.23
2018-09-14T10:22:14.480Z,55.63
2018-09-14T10:23:14.684Z,55.41
2018-09-14T10:24:14.888Z,55.87
2018-09-14T10:25:15.093Z,55.90
2018-09-14T10:26:15.292Z,57.88
2018-09-14T10:27:15.495Z,59.17
2018-09-14T10:28:15.694Z,59.36
2018-09-14T10:29:15.902Z,58.14
2018-09-14T10:30:16.095Z,58.11
2018-09-14T10:31:16.298Z,58.85
2018-09-14T10:32:16.499Z,59.63
2018-09-14T10:33:16.703Z,59.72
2018-09-14T10:34:16.918Z,59.23
2018-09-14T10:35:17.121Z,59.36
2018-09-14T10:36:17.320Z,60.08
2018-09-14T10:37:17.532Z,60.92
2018-09-14T10:38:17.732Z,62.92
2018-09-14T10:39:17.933Z,64.89
2018-09-14T10:40:18.145Z,64.31
2018-09-14T10:41:18.333Z,63.34
2018-09-14T10:42:18.547Z,62.66
2018-09-14T10:43:18.749Z,63.15
2018-09-14T10:44:18.949Z,62.89
2018-09-14T10:45:19.212Z,62.79
2018-09-14T10:46:19.353Z,62.98
2018-09-14T10:47:19.562Z,62.92
2018-09-14T10:48:19.757Z,62.86
2018-09-14T10:49:19.956Z,63.08
2018-09-14T10:50:20.148Z,62.95
2018-09-14T10:51:20.354Z,63.47
2018-09-14T10:52:20.597Z,63.37
2018-09-14T10:53:20.752Z,64.31
2018-09-14T10:54:20.960Z,65.24
2018-09-14T10:55:21.176Z,64.86
2018-09-14T10:56:21.366Z,64.82
2018-09-14T10:57:21.563Z,64.82
2018-09-14T10:58:21.763Z,65.01
2018-09-14T10:59:21.961Z,64.43
2018-09-14T11:00:22.155Z,65.34
2018-09-14T11:01:22.354Z,65.14
2018-09-14T11:02:22.566Z,65.30
2018-09-14T11:03:22.763Z,65.69
2018-09-14T11:04:22.974Z,64.95
2018-09-14T11:05:23.159Z,64.59
2018-09-14T11:06:23.357Z,63.85
2018-09-14T11:07:23.551Z,62.53
2018-09-14T11:08:23.754Z,61.24
2018-09-14T11:09:23.958Z,59.98
2018-09-14T11:10:24.155Z,59.73
2018-09-14T11:11:24.355Z,62.76
2018-09-14T11:12:24.552Z,63.28
2018-09-14T11:13:24.743Z,61.08
2018-09-14T11:14:24.939Z,59.63
2018-09-14T11:15:25.139Z,58.44
2018-09-14T11:16:25.337Z,58.88
2018-09-14T11:17:25.536Z,58.30
2018-09-14T11:18:25.791Z,58.44
2018-09-14T11:19:25.932Z,59.66
2018-09-14T11:20:26.161Z,57.65
2018-09-14T11:21:26.351Z,56.32
2018-09-14T11:22:26.555Z,54.24
2018-09-14T11:23:26.755Z,53.03
2018-09-14T11:24:26.942Z,51.57
2018-09-14T11:25:27.225Z,50.41
2018-09-14T11:26:27.335Z,50.58
2018-09-14T11:27:27.526Z,52.13
2018-09-14T11:28:27.722Z,51.57
2018-09-14T11:29:27.921Z,50.70
2018-09-14T11:30:28.119Z,50.21
2018-09-14T11:31:28.316Z,50.16
2018-09-14T11:32:28.576Z,51.16
2018-09-14T11:33:28.724Z,53.80
2018-09-14T11:34:28.931Z,51.65
2018-09-14T11:35:29.148Z,52.13
2018-09-14T11:36:29.349Z,52.13
2018-09-14T11:37:29.573Z,52.11
2018-09-14T11:38:29.885Z,51.62
2018-09-14T11:39:29.950Z,52.83
2018-09-14T11:40:30.155Z,54.06
2018-09-14T11:41:30.349Z,54.58
2018-09-14T11:42:30.550Z,52.42
2018-09-14T11:43:30.749Z,51.06
2018-09-14T11:44:31.022Z,51.55
2018-09-14T11:45:31.145Z,52.18
2018-09-14T11:46:31.375Z,52.25
2018-09-14T11:47:31.549Z,52.11
2018-09-14T11:48:31.742Z,52.59
2018-09-14T11:49:31.945Z,51.93
2018-09-14T11:50:32.139Z,52.20
2018-09-14T11:51:32.337Z,53.92
2018-09-14T11:52:32.532Z,53.17
2018-09-14T11:53:32.747Z,53.30
2018-09-14T11:54:32.929Z,52.23
2018-09-14T11:55:33.128Z,51.89
2018-09-14T11:56:33.335Z,53.09
2018-09-14T11:57:33.528Z,53.99
2018-09-14T11:58:33.732Z,53.44
2018-09-14T11:59:33.926Z,54.13
2018-09-14T12:00:34.125Z,54.49
2018-09-14T12:01:34.325Z,55.73
2018-09-14T12:02:34.522Z,56.30
2018-09-14T12:03:34.716Z,57.12
2018-09-14T12:04:34.914Z,58.80
2018-09-14T12:05:35.122Z,59.77
2018-09-14T12:06:35.319Z,60.83
2018-09-14T12:07:35.514Z,60.64
2018-09-14T12:08:35.712Z,60.44
2018-09-14T12:09:35.906Z,60.93
2018-09-14T12:10:36.108Z,61.41
2018-09-14T12:11:36.317Z,61.31
2018-09-14T12:12:36.515Z,61.57
2018-09-14T12:13:36.749Z,62.44
2018-09-14T12:14:36.910Z,61.67
2018-09-14T12:15:37.107Z,61.80
2018-09-14T12:16:37.302Z,60.57
2018-09-14T12:17:37.632Z,59.86
2018-09-14T12:18:37.711Z,59.96
2018-09-14T12:19:37.912Z,60.67
2018-09-14T12:20:38.105Z,59.76
2018-09-14T12:21:38.305Z,58.02
2018-09-14T12:22:38.510Z,57.31
2018-09-14T12:23:38.729Z,58.12
2018-09-14T12:24:38.900Z,57.89
2018-09-14T12:25:39.093Z,58.12
2018-09-14T12:26:39.358Z,57.76
2018-09-14T12:27:39.495Z,57.73
2018-09-14T12:28:39.693Z,57.99
2018-09-14T12:29:39.888Z,58.54
2018-09-14T12:30:40.081Z,58.73
2018-09-14T12:31:40.285Z,58.51
2018-09-14T12:32:40.480Z,58.47
2018-09-14T12:33:40.684Z,58.02
2018-09-14T12:34:40.884Z,57.95
2018-09-14T12:35:41.107Z,56.60
2018-09-14T12:36:41.277Z,55.46
2018-09-14T12:37:41.475Z,54.21
2018-09-14T12:38:41.667Z,55.43
2018-09-14T12:39:41.861Z,55.63
2018-09-14T12:40:42.059Z,55.79
2018-09-14T12:41:42.275Z,55.92
2018-09-14T12:42:42.453Z,56.02
2018-09-14T12:43:42.639Z,56.30
2018-09-14T12:44:42.836Z,56.30
2018-09-14T12:45:43.039Z,55.82
2018-09-14T12:46:43.238Z,56.28
2018-09-14T12:47:43.433Z,56.47
2018-09-14T12:48:43.637Z,55.73
2018-09-14T12:49:43.830Z,54.49
2018-09-14T12:50:44.020Z,54.79
2018-09-14T12:51:44.220Z,53.63
2018-09-14T12:52:44.411Z,53.96
2018-09-14T12:53:44.617Z,54.15
2018-09-14T12:54:44.813Z,54.35